Time;durP1;ratioP1;P1;durP2;ratioP2;P2;SDS_P1;SDS_P2;PMS_P1;PMS_P2;Temp;Humidity;BMP_temperature;BMP_pressure;BME280_temperature;BME280_humidity;BME280_pressure;Samples;Min_cycle;Max_cycle;Signal;HPM_P1;HPM_P2
2021/08/17 00:00:27;;;;;;;5.63;3.40;;;;;;;;;;6212943;23;20791;-94
2021/08/17 00:02:55;;;;;;;8.17;4.53;;;;;;;;;;6211813;23;20387;-92
2021/08/17 00:05:22;;;;;;;8.80;4.40;;;;;;;;;;6217641;23;20914;-92
2021/08/17 00:07:50;;;;;;;5.70;4.10;;;11.50;99.90;;;;;;6217485;23;20887;-92
2021/08/17 00:10:17;;;;;;;5.87;4.10;;;;;;;;;;6206227;23;20578;-93
2021/08/17 00:12:44;;;;;;;5.87;3.77;;;;;;;;;;6211617;23;20883;-94
2021/08/17 00:15:12;;;;;;;9.43;4.67;;;11.40;99.90;;;;;;6217479;23;20435;-91
2021/08/17 00:17:40;;;;;;;5.00;3.80;;;;;;;;;;6211446;23;20400;-93
2021/08/17 00:20:08;;;;;;;6.40;4.17;;;11.30;99.90;;;;;;6217485;23;20489;-93
2021/08/17 00:22:36;;;;;;;6.57;4.00;;;11.20;99.90;;;;;;6217529;23;20395;-92
2021/08/17 00:25:06;;;;;;;8.50;4.73;;;;;;;;;;6211880;23;20899;-92
2021/08/17 00:27:33;;;;;;;7.90;4.70;;;;;;;;;;6213758;23;20442;-92
2021/08/17 00:30:00;;;;;;;7.37;4.53;;;;;;;;;;6217454;23;20396;-91
2021/08/17 00:32:27;;;;;;;6.03;3.73;;;;;;;;;;6218376;23;20407;-92
2021/08/17 00:34:56;;;;;;;7.80;4.43;;;;;;;;;;6222680;23;20431;-94
2021/08/17 00:37:23;;;;;;;6.00;4.43;;;;;;;;;;6218204;23;20427;-93
2021/08/17 00:39:50;;;;;;;5.93;3.90;;;;;;;;;;6210853;23;20446;-94
2021/08/17 00:42:19;;;;;;;6.83;4.37;;;;;;;;;;6219096;23;20402;-93
2021/08/17 00:44:46;;;;;;;6.00;3.93;;;;;;;;;;6217260;23;20395;-94
2021/08/17 00:47:14;;;;;;;5.00;3.10;;;12.50;99.90;;;;;;6211717;23;20415;-93
2021/08/17 00:49:41;;;;;;;7.30;4.70;;;;;;;;;;6213113;23;20907;-92
2021/08/17 00:52:10;;;;;;;6.67;3.87;;;11.10;99.90;;;;;;6217031;23;20407;-92
2021/08/17 00:54:37;;;;;;;7.77;4.53;;;;;;;;;;6208387;23;20450;-92
2021/08/17 00:57:05;;;;;;;5.37;3.80;;;;;;;;;;6217451;23;20709;-92
2021/08/17 00:59:34;;;;;;;9.03;4.63;;;11.00;99.90;;;;;;6219034;23;20392;-93
2021/08/17 01:02:03;;;;;;;6.90;3.63;;;11.00;99.90;;;;;;6217196;23;20391;-93
2021/08/17 01:04:30;;;;;;;6.63;3.53;;;;;;;;;;6208294;23;20949;-91
2021/08/17 01:06:57;;;;;;;6.33;4.33;;;;;;;;;;6218046;23;20380;-92
2021/08/17 01:09:24;;;;;;;6.53;3.90;;;;;;;;;;6215455;23;20388;-92
2021/08/17 01:11:51;;;;;;;6.70;4.00;;;;;;;;;;6217330;23;20435;-94
2021/08/17 01:14:20;;;;;;;7.20;4.10;;;10.70;99.90;;;;;;6216677;23;20388;-93
2021/08/17 01:16:48;;;;;;;7.03;4.17;;;;;;;;;;6216907;23;20452;-92
2021/08/17 01:19:18;;;;;;;6.13;3.63;;;10.70;99.90;;;;;;6216365;23;20411;-92
2021/08/17 01:21:45;;;;;;;7.43;4.13;;;;;;;;;;6211350;23;20415;-94
2021/08/17 01:24:12;;;;;;;7.27;4.67;;;;;;;;;;6215017;23;20396;-92
2021/08/17 01:26:41;;;;;;;6.17;4.33;;;;;;;;;;6216338;23;20422;-93
2021/08/17 01:29:11;;;;;;;8.23;4.50;;;10.60;99.90;;;;;;6209343;23;20396;-93
2021/08/17 01:31:38;;;;;;;5.77;3.80;;;10.60;99.90;;;;;;6210985;23;20396;-91
2021/08/17 01:34:06;;;;;;;4.90;3.40;;;;;;;;;;6216251;23;20422;-91
2021/08/17 01:36:33;;;;;;;7.10;3.93;;;;;;;;;;6211536;23;20431;-90
2021/08/17 01:39:00;;;;;;;6.63;3.83;;;;;;;;;;6209016;23;20736;-91
2021/08/17 01:41:27;;;;;;;6.27;4.00;;;;;;;;;;6212002;23;20418;-92
2021/08/17 01:43:56;;;;;;;8.43;4.20;;;;;;;;;;6216279;23;20407;-92
2021/08/17 01:46:23;;;;;;;8.43;4.33;;;;;;;;;;6211613;23;20392;-94
2021/08/17 01:48:50;;;;;;;7.33;4.17;;;;;;;;;;6216193;23;20743;-91
2021/08/17 01:51:18;;;;;;;10.30;4.37;;;;;;;;;;6211973;23;20494;-93
2021/08/17 01:53:45;;;;;;;8.20;4.83;;;;;;;;;;6215000;23;20888;-91
2021/08/17 01:56:13;;;;;;;8.60;4.67;;;10.30;99.90;;;;;;6216720;23;20439;-91
2021/08/17 01:58:42;;;;;;;7.57;4.50;;;10.20;99.90;;;;;;6216426;23;20402;-93
2021/08/17 02:01:11;;;;;;;8.60;4.60;;;10.20;99.90;;;;;;6216206;23;20411;-93
2021/08/17 02:03:38;;;;;;;8.07;4.40;;;;;;;;;;6209942;23;20400;-92
2021/08/17 02:06:05;;;;;;;8.20;4.47;;;;;;;;;;6216412;23;20910;-91
2021/08/17 02:08:33;;;;;;;7.00;4.07;;;;;;;;;;6214925;23;20398;-90
2021/08/17 02:11:00;;;;;;;7.57;5.40;;;;;;;;;;6216009;23;20441;-91
2021/08/17 02:13:28;;;;;;;8.33;4.57;;;;;;;;;;6215859;23;20407;-90
2021/08/17 02:15:56;;;;;;;7.63;3.50;;;10.10;99.90;;;;;;6216000;23;20817;-91
2021/08/17 02:18:25;;;;;;;6.20;4.27;;;;;;;;;;6211419;23;20395;-91
2021/08/17 02:20:52;;;;;;;5.80;4.10;;;;;;;;;;6215864;23;20781;-90
2021/08/17 02:23:20;;;;;;;9.03;4.53;;;;;;;;;;6216338;23;20392;-91
2021/08/17 02:25:47;;;;;;;11.93;5.00;;;;;;;;;;6233435;23;20383;-91
2021/08/17 02:28:14;;;;;;;7.00;4.00;;;;;;;;;;6241284;23;20459;-91
2021/08/17 02:30:41;;;;;;;5.60;4.10;;;;;;;;;;6216861;23;20698;-91
2021/08/17 02:33:08;;;;;;;6.30;4.20;;;;;;;;;;6211534;23;20415;-91
2021/08/17 02:35:36;;;;;;;7.10;4.03;;;9.90;99.90;;;;;;6211119;23;20442;-91
2021/08/17 02:38:05;;;;;;;7.77;4.17;;;;;;;;;;6205968;23;20445;-90
2021/08/17 02:40:32;;;;;;;9.10;4.40;;;;;;;;;;6210398;23;20443;-91
2021/08/17 02:42:59;;;;;;;7.17;4.60;;;;;;;;;;6216125;23;20410;-92
2021/08/17 02:45:26;;;;;;;7.37;4.20;;;;;;;;;;6211284;23;20753;-93
2021/08/17 02:47:56;;;;;;;5.30;3.57;;;9.80;99.90;;;;;;6215761;23;20412;-92
2021/08/17 02:50:24;;;;;;;5.67;3.50;;;;;;;;;;6215944;23;20414;-92
2021/08/17 02:52:52;;;;;;;7.43;3.87;;;9.70;99.90;;;;;;6211560;23;20415;-90
2021/08/17 02:55:19;;;;;;;7.70;3.70;;;;;;;;;;6214574;23;20422;-93
2021/08/17 02:57:51;;;;;;;5.97;3.93;;;9.70;99.90;;;;;;6216701;23;20403;-91
2021/08/17 03:00:18;;;;;;;7.17;4.30;;;9.60;99.90;;;;;;6215970;23;20396;-92
2021/08/17 03:02:46;;;;;;;6.47;3.10;;;;;;;;;;6216247;23;20404;-91
2021/08/17 03:05:13;;;;;;;5.73;3.57;;;;;;;;;;6216355;23;20895;-92
2021/08/17 03:07:49;;;;;;;6.10;4.37;;;9.60;99.90;;;;;;6216057;23;20398;-90
2021/08/17 03:10:17;;;;;;;5.60;3.57;;;9.50;99.90;;;;;;6216304;23;20438;-92
2021/08/17 03:12:44;;;;;;;6.73;4.00;;;;;;;;;;6207593;23;20395;-90
2021/08/17 03:15:12;;;;;;;5.17;3.50;;;9.50;99.90;;;;;;6212828;23;20406;-92
2021/08/17 03:17:39;;;;;;;4.80;4.20;;;;;;;;;;6212573;23;20439;-93
2021/08/17 03:20:08;;;;;;;8.17;4.30;;;9.50;99.90;;;;;;6217586;23;20753;-91
2021/08/17 03:22:35;;;;;;;8.87;4.53;;;;;;;;;;6212685;23;20422;-91
2021/08/17 03:25:02;;;;;;;6.80;4.20;;;;;;;;;;6208708;23;20400;-89
2021/08/17 03:27:30;;;;;;;7.27;4.37;;;9.40;99.90;;;;;;6217858;23;20399;-91
2021/08/17 03:29:58;;;;;;;8.23;4.97;;;;;;;;;;6205894;23;20400;-91
2021/08/17 03:32:25;;;;;;;8.40;4.17;;;;;;;;;;6217478;23;20411;-91
2021/08/17 03:34:52;;;;;;;7.77;4.50;;;;;;;;;;6217266;23;20945;-91
2021/08/17 03:37:19;;;;;;;7.67;4.20;;;;;;;;;;6212517;23;20458;-92
2021/08/17 03:39:47;;;;;;;5.83;3.83;;;;;;;;;;6216257;23;20395;-92
2021/08/17 03:42:14;;;;;;;7.27;3.80;;;;;;;;;;6217043;23;20415;-93
2021/08/17 03:44:43;;;;;;;5.70;3.93;;;;;;;;;;6212645;23;20454;-91
2021/08/17 03:47:10;;;;;;;6.83;4.73;;;;;;;;;;6217598;23;20403;-90
2021/08/17 03:49:37;;;;;;;5.93;4.33;;;;;;;;;;6211244;23;20415;-90
2021/08/17 03:52:04;;;;;;;7.80;3.93;;;9.50;99.90;;;;;;6212579;23;20466;-90
2021/08/17 03:54:31;;;;;;;8.37;4.47;;;;;;;;;;6215831;23;20935;-91
2021/08/17 03:56:59;;;;;;;7.97;4.00;;;;;;;;;;6211089;23;20447;-92
2021/08/17 03:59:26;;;;;;;8.70;4.60;;;;;;;;;;6212967;23;20399;-91
2021/08/17 04:01:54;;;;;;;7.60;3.90;;;;;;;;;;6212253;23;20407;-92
2021/08/17 04:04:21;;;;;;;7.70;4.70;;;;;;;;;;6216781;23;20911;-90
2021/08/17 04:06:48;;;;;;;7.37;4.23;;;;;;;;;;6217228;23;20968;-92
2021/08/17 04:09:16;;;;;;;5.37;3.40;;;;;;;;;;6211580;23;20494;-92
2021/08/17 04:11:43;;;;;;;8.50;4.70;;;;;;;;;;6216627;23;20438;-91
2021/08/17 04:14:10;;;;;;;8.50;4.87;;;;;;;;;;6217341;23;20719;-92
2021/08/17 04:16:37;;;;;;;7.33;4.27;;;;;;;;;;6216878;23;20958;-91
2021/08/17 04:19:05;;;;;;;7.17;3.83;;;9.30;99.90;;;;;;6216619;23;20814;-90
2021/08/17 04:21:32;;;;;;;8.43;3.80;;;;;;;;;;6216909;23;20407;-91
2021/08/17 04:24:00;;;;;;;7.77;4.23;;;;;;;;;;6215258;23;20416;-92
2021/08/17 04:26:27;;;;;;;8.47;4.63;;;;;;;;;;6217112;23;20450;-91
2021/08/17 04:28:54;;;;;;;10.20;4.77;;;;;;;;;;6212387;23;20525;-90
2021/08/17 04:31:21;;;;;;;9.90;5.87;;;;;;;;;;6217030;23;20396;-91
2021/08/17 04:33:48;;;;;;;6.40;4.40;;;;;;;;;;6217144;23;20403;-90
2021/08/17 04:36:17;;;;;;;7.47;4.40;;;9.30;99.90;;;;;;6217097;23;20762;-90
2021/08/17 04:38:44;;;;;;;14.30;5.13;;;;;;;;;;6214790;23;20719;-91
2021/08/17 04:41:11;;;;;;;7.87;4.67;;;;;;;;;;6217211;23;20391;-92
2021/08/17 04:43:39;;;;;;;6.00;4.00;;;;;;;;;;6217114;23;20435;-91
2021/08/17 04:46:20;;;;;;;10.70;4.23;;;;;;;;;;6232350;23;20408;-91
2021/08/17 04:48:50;;;;;;;6.37;4.53;;;;;;;;;;6170917;23;20409;-90
2021/08/17 04:51:19;;;;;;;8.70;5.47;;;9.50;99.90;;;;;;6162379;23;20417;-91
2021/08/17 04:53:46;;;;;;;10.13;4.70;;;;;;;;;;6160426;23;20453;-91
2021/08/17 04:56:13;;;;;;;6.00;3.80;;;;;;;;;;6157529;23;20882;-92
2021/08/17 04:58:40;;;;;;;7.80;4.10;;;;;;;;;;6154898;23;20406;-91
2021/08/17 05:01:07;;;;;;;11.30;4.50;;;;;;;;;;6155960;23;21000;-91
2021/08/17 05:03:34;;;;;;;7.30;3.60;;;;;;;;;;6154155;23;20409;-91
2021/08/17 05:06:02;;;;;;;6.97;4.10;;;;;;;;;;6161833;23;20904;-89
2021/08/17 05:08:30;;;;;;;6.40;4.10;;;9.70;99.90;;;;;;6215683;23;20403;-90
2021/08/17 05:10:57;;;;;;;12.67;4.40;;;;;;;;;;6217589;23;20435;-90
2021/08/17 05:13:24;;;;;;;8.77;3.87;;;;;;;;;;6218720;23;20403;-89
2021/08/17 05:15:51;;;;;;;10.50;3.97;;;;;;;;;;6223221;23;20403;-90
2021/08/17 05:18:18;;;;;;;7.97;5.20;;;;;;;;;;6229476;23;20426;-90
2021/08/17 05:20:45;;;;;;;6.03;4.53;;;;;;;;;;6243221;23;20391;-91
2021/08/17 05:23:13;;;;;;;8.20;5.03;;;;;;;;;;6226908;23;20415;-90
2021/08/17 05:25:42;;;;;;;8.03;4.33;;;;;;;;;;6213695;23;20402;-94
2021/08/17 05:28:10;;;;;;;6.23;4.03;;;;;;;;;;6220529;23;20895;-91
2021/08/17 05:30:37;;;;;;;8.63;4.93;;;;;;;;;;6217389;23;20422;-89
2021/08/17 05:33:04;;;;;;;6.37;4.57;;;;;;;;;;6219794;23;20395;-90
2021/08/17 05:35:31;;;;;;;8.40;5.23;;;;;;;;;;6218747;23;20746;-89
2021/08/17 05:37:58;;;;;;;6.70;5.00;;;;;;;;;;6218543;23;20526;-90
2021/08/17 05:40:25;;;;;;;7.37;4.80;;;;;;;;;;6216316;23;20897;-91
2021/08/17 05:42:54;;;;;;;5.43;3.73;;;10.80;99.90;;;;;;6214481;23;20400;-90
2021/08/17 05:45:21;;;;;;;7.50;4.63;;;;;;;;;;6213611;23;20422;-92
2021/08/17 05:47:49;;;;;;;8.10;4.20;;;;;;;;;;6213743;23;20455;-90
2021/08/17 05:50:17;;;;;;;8.00;3.90;;;11.40;99.90;;;;;;6214519;23;20392;-92
2021/08/17 05:52:44;;;;;;;5.40;4.00;;;;;;;;;;6219363;23;20459;-90
2021/08/17 05:55:12;;;;;;;5.87;4.00;;;;;;;;;;6212887;23;20415;-90
2021/08/17 05:57:39;;;;;;;6.27;3.70;;;;;;;;;;6213563;23;20458;-90
2021/08/17 06:00:11;;;;;;;6.53;3.53;;;12.20;99.90;;;;;;6218023;23;20402;-90
2021/08/17 06:02:38;;;;;;;5.03;3.80;;;;;;;;;;6213796;23;20446;-91
2021/08/17 06:05:06;;;;;;;7.00;4.00;;;11.90;99.90;;;;;;6213567;23;20412;-91
2021/08/17 06:07:33;;;;;;;6.63;4.50;;;;;;;;;;6219065;23;20411;-91
2021/08/17 06:10:00;;;;;;;6.43;3.90;;;;;;;;;;6214834;23;20754;-90
2021/08/17 06:12:28;;;;;;;5.93;3.40;;;;;;;;;;6216134;23;20868;-90
2021/08/17 06:14:55;;;;;;;10.43;3.70;;;;;;;;;;6215901;23;20446;-92
2021/08/17 06:17:23;;;;;;;7.17;4.30;;;12.00;99.90;;;;;;6209786;23;20431;-92
2021/08/17 06:19:50;;;;;;;5.67;3.53;;;;;;;;;;6203600;23;20431;-94
2021/08/17 06:22:17;;;;;;;6.10;4.50;;;;;;;;;;6215694;23;20407;-91
2021/08/17 06:24:44;;;;;;;3.80;2.63;;;;;;;;;;6214464;23;20392;-91
2021/08/17 06:27:12;;;;;;;5.63;3.50;;;;;;;;;;6215782;23;20719;-88
2021/08/17 06:29:39;;;;;;;7.23;3.93;;;;;;;;;;6215667;23;20876;-89
2021/08/17 06:32:06;;;;;;;5.67;3.50;;;;;;;;;;6215917;23;20398;-89
2021/08/17 06:34:34;;;;;;;6.13;4.50;;;12.50;99.90;;;;;;6215131;23;20429;-90
2021/08/17 06:37:01;;;;;;;5.40;3.30;;;;;;;;;;6211154;23;20497;-90
2021/08/17 06:39:28;;;;;;;7.40;4.27;;;;;;;;;;6213972;23;20439;-90
2021/08/17 06:41:55;;;;;;;4.40;3.37;;;;;;;;;;6215346;23;20392;-92
2021/08/17 06:44:22;;;;;;;4.50;3.13;;;;;;;;;;6215554;23;20395;-89
2021/08/17 06:46:50;;;;;;;5.23;3.83;;;;;;;;;;6217628;23;20406;-89
2021/08/17 06:49:17;;;;;;;6.23;4.63;;;;;;;;;;6211727;23;20392;-89
2021/08/17 06:51:45;;;;;;;6.57;4.07;;;14.10;99.90;;;;;;6211649;23;20395;-88
2021/08/17 06:54:12;;;;;;;6.50;4.70;;;;;;;;;;6216101;23;20395;-90
2021/08/17 06:56:42;;;;;;;5.70;4.17;;;;;;;;;;6217649;23;20398;-92
2021/08/17 06:59:09;;;;;;;6.17;4.43;;;;;;;;;;6212682;23;20414;-90
2021/08/17 07:01:36;;;;;;;8.70;5.20;;;;;;;;;;6217251;23;20395;-90
2021/08/17 07:04:03;;;;;;;6.73;5.30;;;;;;;;;;6217102;23;20399;-90
2021/08/17 07:06:32;;;;;;;7.57;4.60;;;;;;;;;;6217550;23;20394;-89
2021/08/17 07:09:02;;;;;;;7.30;4.60;;;14.70;99.90;;;;;;6210735;23;20732;-89
2021/08/17 07:11:29;;;;;;;5.73;4.33;;;;;;;;;;6211362;23;20493;-89
2021/08/17 07:13:56;;;;;;;6.70;4.37;;;;;;;;;;6217320;23;20391;-90
2021/08/17 07:16:23;;;;;;;9.43;4.80;;;;;;;;;;6217414;23;20906;-92
2021/08/17 07:18:50;;;;;;;5.40;4.80;;;;;;;;;;6217177;23;20450;-90
2021/08/17 07:21:17;;;;;;;7.00;4.43;;;;;;;;;;6217435;23;20418;-92
2021/08/17 07:23:44;;;;;;;9.30;5.20;;;;;;;;;;6215474;23;20396;-89
2021/08/17 07:26:12;;;;;;;6.90;4.90;;;15.70;99.90;;;;;;6217136;23;20391;-88
2021/08/17 07:28:40;;;;;;;9.50;5.37;;;;;;;;;;6140014;23;20709;-90
2021/08/17 07:31:07;;;;;;;6.20;3.53;;;;;;;;;;6217640;23;20399;-90
2021/08/17 07:33:34;;;;;;;6.53;4.73;;;;;;;;;;6216642;23;20754;-89
2021/08/17 07:36:01;;;;;;;7.57;5.40;;;;;;;;;;6217595;23;20402;-88
2021/08/17 07:38:28;;;;;;;8.63;5.33;;;;;;;;;;6215581;23;20435;-87
2021/08/17 07:40:55;;;;;;;6.83;4.63;;;;;;;;;;6216943;23;20401;-89
2021/08/17 07:43:24;;;;;;;6.07;4.03;;;15.10;99.90;;;;;;6216853;23;20402;-90
2021/08/17 07:45:51;;;;;;;6.87;5.23;;;;;;;;;;6216758;23;20396;-91
2021/08/17 07:48:18;;;;;;;6.33;5.00;;;;;;;;;;6210921;23;20415;-91
2021/08/17 07:50:45;;;;;;;8.63;6.07;;;;;;;;;;6217002;23;20395;-88
2021/08/17 07:53:12;;;;;;;5.70;4.80;;;;;;;;;;6211561;23;20427;-89
2021/08/17 07:55:39;;;;;;;8.20;4.93;;;;;;;;;;6214724;23;20403;-89
2021/08/17 07:58:07;;;;;;;9.37;5.20;;;;;;;;;;6211590;23;20470;-88
2021/08/17 08:00:35;;;;;;;8.17;5.13;;;15.00;99.90;;;;;;6216191;23;20396;-88
2021/08/17 08:03:02;;;;;;;4.90;4.17;;;;;;;;;;6216564;23;20824;-89
2021/08/17 08:05:29;;;;;;;9.07;4.57;;;;;;;;;;6216454;23;20407;-89
2021/08/17 08:07:56;;;;;;;7.97;4.67;;;;;;;;;;6216217;23;20407;-88
2021/08/17 08:10:23;;;;;;;6.93;5.20;;;;;;;;;;6214338;23;20446;-89
2021/08/17 08:12:51;;;;;;;5.73;4.50;;;;;;;;;;6220987;23;20406;-88
2021/08/17 08:15:18;;;;;;;5.27;4.13;;;;;;;;;;6244151;23;20395;-89
2021/08/17 08:17:46;;;;;;;6.20;4.90;;;15.90;99.90;;;;;;6235618;23;20467;-88
2021/08/17 08:20:24;;;;;;;8.37;4.20;;;16.60;99.90;;;;;;6216756;23;20399;-88
2021/08/17 08:22:52;;;;;;;5.60;4.53;;;;;;;;;;6216106;23;20402;-88
2021/08/17 08:25:19;;;;;;;6.70;4.33;;;;;;;;;;6214693;23;20398;-88
2021/08/17 08:27:46;;;;;;;5.43;4.17;;;;;;;;;;6211552;23;20396;-88
2021/08/17 08:30:13;;;;;;;6.53;4.73;;;;;;;;;;6216909;23;20391;-87
2021/08/17 08:32:41;;;;;;;5.83;3.80;;;;;;;;;;6216073;23;20394;-88
2021/08/17 08:35:10;;;;;;;5.80;4.63;;;16.20;99.90;;;;;;6216432;23;20403;-87
2021/08/17 08:37:37;;;;;;;5.77;4.00;;;;;;;;;;6216271;23;20518;-89
2021/08/17 08:40:05;;;;;;;7.10;4.50;;;;;;;;;;6215020;23;20399;-87
2021/08/17 08:42:32;;;;;;;5.00;3.90;;;;;;;;;;6216007;23;20388;-87
2021/08/17 08:44:59;;;;;;;6.33;5.47;;;;;;;;;;6216469;23;20407;-88
2021/08/17 08:47:27;;;;;;;6.30;4.60;;;;;;;;;;6216320;23;20699;-87
2021/08/17 08:49:54;;;;;;;7.43;4.63;;;;;;;;;;6216281;23;20767;-87
2021/08/17 08:52:23;;;;;;;7.67;5.80;;;16.00;99.90;;;;;;6216557;23;20427;-87
2021/08/17 08:54:50;;;;;;;7.80;5.10;;;;;;;;;;6215104;23;20399;-88
2021/08/17 08:57:17;;;;;;;6.47;5.20;;;;;;;;;;6217722;23;20399;-87
2021/08/17 08:59:44;;;;;;;6.00;4.80;;;;;;;;;;6221457;23;20395;-88
2021/08/17 09:02:13;;;;;;;5.33;4.13;;;16.30;99.90;;;;;;6217585;23;20402;-90
2021/08/17 09:04:50;;;;;;;6.20;4.50;;;16.40;99.90;;;;;;6216681;23;20398;-88
2021/08/17 09:07:17;;;;;;;6.03;4.70;;;;;;;;;;6217318;23;20863;-87
2021/08/17 09:10:00;;;;;;;6.50;5.27;;;17.30;99.90;;;;;;6219488;23;20497;-87
2021/08/17 09:12:35;;;;;;;8.00;5.20;;;17.70;99.90;;;;;;6224436;23;20394;-87
2021/08/17 09:15:15;;;;;;;6.67;4.90;;;18.00;99.90;;;;;;6222604;23;20873;-87
2021/08/17 09:17:45;;;;;;;5.40;4.50;;;18.50;99.90;;;;;;6223625;23;20431;-88
2021/08/17 09:20:16;;;;;;;6.20;4.70;;;18.30;99.90;;;;;;6222448;23;20400;-88
2021/08/17 09:22:43;;;;;;;5.63;4.50;;;18.10;99.90;;;;;;6215806;23;20391;-87
2021/08/17 09:25:12;;;;;;;6.90;5.20;;;18.30;99.90;;;;;;6214462;23;20404;-87
2021/08/17 09:27:39;;;;;;;5.63;4.20;;;;;;;;;;6215377;23;20388;-91
2021/08/17 09:30:10;;;;;;;6.97;4.63;;;17.90;99.90;;;;;;6215869;23;20391;-86
2021/08/17 09:32:50;;;;;;;6.23;4.70;;;18.40;99.90;;;;;;6215685;23;20392;-88
2021/08/17 09:35:19;;;;;;;6.43;4.60;;;18.90;99.90;;;;;;6215409;23;20399;-88
2021/08/17 09:37:47;;;;;;;8.70;4.50;;;;;;;;;;6093815;23;20470;-88
2021/08/17 09:40:24;;;;;;;8.13;5.13;;;19.00;99.90;;;;;;6092621;23;20778;-88
2021/08/17 09:42:51;;;;;;;9.00;4.30;;;;;;;;;;6094427;23;20515;-87
2021/08/17 09:45:19;;;;;;;7.33;4.30;;;18.50;99.50;;;;;;6094207;23;20493;-87
2021/08/17 09:47:54;;;;;;;5.10;4.30;;;18.00;99.00;;;;;;6088588;23;20425;-89
2021/08/17 09:50:27;;;;;;;4.67;4.03;;;16.90;99.90;;;;;;6094010;23;20994;-88
2021/08/17 09:53:10;;;;;;;6.47;4.23;;;18.10;99.90;;;;;;6094134;23;20430;-89
2021/08/17 09:55:44;;;;;;;6.07;4.37;;;18.30;99.90;;;;;;6138162;23;20434;-88
2021/08/17 09:58:18;;;;;;;5.40;3.47;;;;;;;;;;6208718;23;20442;-87
2021/08/17 10:00:46;;;;;;;4.50;3.90;;;;;;;;;;6215992;23;20418;-88
2021/08/17 10:03:13;;;;;;;5.40;3.47;;;;;;;;;;6215119;23;20403;-88
2021/08/17 10:05:40;;;;;;;4.97;3.37;;;;;;;;;;6215415;23;20713;-88
2021/08/17 10:08:11;;;;;;;4.90;3.33;;;17.70;99.80;;;;;;6209141;23;20399;-89
2021/08/17 10:10:38;;;;;;;5.53;3.70;;;17.30;97.00;;;;;;6213768;23;20493;-87
2021/08/17 10:13:11;;;;;;;4.60;3.77;;;17.00;98.80;;;;;;6215408;23;20394;-87
2021/08/17 10:15:38;;;;;;;6.30;4.07;;;;;;;;;;6210557;23;20469;-87
2021/08/17 10:18:07;;;;;;;4.80;3.63;;;16.40;99.90;;;;;;6214985;23;20966;-89
2021/08/17 10:20:34;;;;;;;4.40;3.83;;;16.30;98.10;;;;;;6216835;23;20410;-89
2021/08/17 10:23:02;;;;;;;5.10;3.20;;;16.00;99.90;;;;;;6212924;23;20398;-87
2021/08/17 10:25:43;;;;;;;5.40;2.77;;;16.00;97.20;;;;;;6216208;23;20399;-88
2021/08/17 10:28:28;;;;;;;5.30;3.37;;;16.00;97.60;;;;;;6217158;23;20478;-88
2021/08/17 10:30:55;;;;;;;4.17;3.00;;;;;;;;;;6216906;23;20855;-88
2021/08/17 10:33:37;;;;;;;6.13;3.50;;;16.90;99.90;;;;;;6217325;23;20390;-87
2021/08/17 10:36:04;;;;;;;4.73;3.17;;;17.40;99.90;;;;;;6217418;23;20410;-88
2021/08/17 10:38:46;;;;;;;4.83;3.10;;;17.30;99.90;;;;;;6215840;23;20439;-87
2021/08/17 10:41:13;;;;;;;3.87;2.97;;;;;;;;;;6217403;23;20438;-87
2021/08/17 10:44:19;;;;;;;4.63;3.50;;;17.10;99.90;;;;;;6217291;23;20394;-87
2021/08/17 10:47:01;;;;;;;4.40;3.23;;;18.20;99.90;;;;;;6217398;23;20399;-87
2021/08/17 10:49:51;;;;;;;4.97;3.20;;;18.30;99.90;;;;;;6140313;23;20445;-88
2021/08/17 10:52:33;;;;;;;5.73;3.70;;;18.90;99.90;;;;;;6216983;23;20434;-87
2021/08/17 10:55:32;;;;;;;5.90;3.40;;;19.50;99.90;;;;;;6215580;23;20886;-87
2021/08/17 10:58:01;;;;;;;4.37;3.07;;;20.60;93.30;;;;;;6217215;23;20746;-87
2021/08/17 11:00:53;;;;;;;3.93;2.93;;;20.80;92.30;;;;;;6216814;23;20399;-86
2021/08/17 11:03:39;;;;;;;5.17;2.90;;;20.00;91.60;;;;;;6216758;23;20719;-86
2021/08/17 11:06:06;;;;;;;3.00;2.63;;;20.10;92.20;;;;;;6217329;23;20406;-87
2021/08/17 11:08:36;;;;;;;4.53;2.97;;;20.00;96.20;;;;;;6215288;23;20902;-87
2021/08/17 11:11:06;;;;;;;3.77;2.93;;;19.70;90.60;;;;;;6244179;23;20429;-87
2021/08/17 11:13:33;;;;;;;3.40;2.67;;;;;;;;;;6240333;23;20414;-87
2021/08/17 11:16:08;;;;;;;3.13;2.50;;;20.20;99.90;;;;;;6217066;23;20394;-87
2021/08/17 11:18:51;;;;;;;3.47;2.70;;;19.80;99.70;;;;;;6217026;23;20431;-88
2021/08/17 11:21:30;;;;;;;4.53;3.00;;;19.80;99.90;;;;;;6216668;23;20406;-87
2021/08/17 11:24:18;;;;;;;4.13;2.70;;;19.40;99.90;;;;;;6215329;23;20426;-87
2021/08/17 11:26:47;;;;;;;3.63;2.97;;;20.00;91.40;;;;;;6204606;23;20403;-86
2021/08/17 11:29:25;;;;;;;4.17;2.73;;;20.20;89.80;;;;;;6216827;23;20395;-87
2021/08/17 11:31:54;;;;;;;3.30;2.73;;;20.60;94.70;;;;;;6216042;23;20875;-88
2021/08/17 11:34:23;;;;;;;3.97;2.90;;;20.90;90.00;;;;;;6217176;23;20392;-87
2021/08/17 11:37:09;;;;;;;5.67;3.60;;;20.80;99.90;;;;;;6216397;23;20406;-87
2021/08/17 11:39:40;;;;;;;4.70;3.10;;;21.00;88.80;;;;;;6215094;23;20927;-87
2021/08/17 11:42:13;;;;;;;2.80;2.50;;;20.90;99.90;;;;;;6217028;23;20699;-87
2021/08/17 11:44:40;;;;;;;3.37;2.83;;;;;;;;;;6216547;23;20392;-88
2021/08/17 11:47:10;;;;;;;4.70;3.00;;;20.30;88.20;;;;;;6216673;23;20395;-88
2021/08/17 11:49:38;;;;;;;4.20;2.57;;;19.20;90.00;;;;;;6216966;23;20396;-89
2021/08/17 11:52:11;;;;;;;5.13;3.57;;;19.80;93.70;;;;;;6216374;23;20431;-87
2021/08/17 11:54:45;;;;;;;3.87;2.80;;;20.20;91.10;;;;;;6215241;23;20387;-87
2021/08/17 11:57:13;;;;;;;4.10;3.43;;;20.70;91.90;;;;;;6216615;23;20396;-87
2021/08/17 11:59:43;;;;;;;10.73;4.67;;;21.00;90.40;;;;;;6216373;23;20500;-89
2021/08/17 12:02:18;;;;;;;5.70;4.27;;;20.90;99.90;;;;;;6216432;23;20446;-87
2021/08/17 12:04:49;;;;;;;4.83;3.80;;;20.90;90.20;;;;;;6216439;23;20403;-87
2021/08/17 12:07:17;;;;;;;5.03;3.83;;;20.80;99.90;;;;;;6216112;23;20415;-87
2021/08/17 12:09:46;;;;;;;4.00;3.60;;;20.90;91.40;;;;;;6214083;23;20396;-86
2021/08/17 12:12:15;;;;;;;4.77;3.93;;;20.70;92.00;;;;;;6211175;23;20458;-88
2021/08/17 12:14:43;;;;;;;5.37;3.60;;;;;;;;;;6209438;23;20418;-88
2021/08/17 12:17:19;;;;;;;5.50;3.90;;;20.70;89.00;;;;;;6216272;23;20418;-87
2021/08/17 12:19:48;;;;;;;5.63;3.30;;;19.50;91.00;;;;;;6216303;23;20461;-86
2021/08/17 12:22:24;;;;;;;5.43;4.13;;;19.00;93.40;;;;;;6211228;23;20577;-88
2021/08/17 12:24:53;;;;;;;4.87;3.73;;;20.00;92.60;;;;;;6209462;23;20780;-87
2021/08/17 12:27:28;;;;;;;7.10;3.77;;;20.30;92.60;;;;;;6216174;23;20391;-87
2021/08/17 12:29:56;;;;;;;6.50;3.97;;;20.90;90.30;;;;;;6215774;23;20720;-88
2021/08/17 12:32:28;;;;;;;6.77;4.10;;;21.20;91.90;;;;;;6215758;23;20486;-87
2021/08/17 12:34:55;;;;;;;5.40;4.40;;;;;;;;;;6210021;23;20400;-88
2021/08/17 12:37:30;;;;;;;5.20;3.90;;;21.40;87.70;;;;;;6215569;23;20392;-88
2021/08/17 12:39:59;;;;;;;5.40;4.50;;;21.60;90.80;;;;;;6214365;23;20439;-87
2021/08/17 12:42:26;;;;;;;4.10;3.50;;;;;;;;;;6139108;23;20407;-87
2021/08/17 12:44:53;;;;;;;4.57;3.67;;;;;;;;;;6215534;23;20832;-87
2021/08/17 12:47:23;;;;;;;5.20;4.17;;;22.40;92.20;;;;;;6211300;23;20864;-87
2021/08/17 12:49:54;;;;;;;6.70;3.80;;;21.80;88.50;;;;;;6215829;23;20442;-90
2021/08/17 12:52:31;;;;;;;6.63;4.50;;;21.80;90.00;;;;;;6215534;23;20867;-88
2021/08/17 12:54:59;;;;;;;4.93;3.80;;;21.40;90.70;;;;;;6214271;23;20453;-88
2021/08/17 12:57:29;;;;;;;6.37;4.40;;;22.00;92.60;;;;;;6211423;23;20391;-88
2021/08/17 12:59:58;;;;;;;6.43;4.40;;;;;;;;;;6210811;23;20773;-87
2021/08/17 13:02:25;;;;;;;7.27;5.07;;;22.70;87.10;;;;;;6215739;23;20399;-88
2021/08/17 13:04:53;;;;;;;7.07;3.77;;;21.90;90.80;;;;;;6215786;23;20402;-88
2021/08/17 13:07:21;;;;;;;4.13;3.53;;;21.50;91.00;;;;;;6209391;23;20391;-87
2021/08/17 13:09:48;;;;;;;4.63;4.13;;;;;;;;;;6213681;23;20442;-87
2021/08/17 13:12:15;;;;;;;5.23;3.97;;;;;;;;;;6215630;23;20403;-89
2021/08/17 13:14:43;;;;;;;4.83;4.03;;;;;;;;;;6210668;23;20760;-88
2021/08/17 13:17:10;;;;;;;5.47;4.10;;;;;;;;;;6215539;23;20679;-88
2021/08/17 13:19:38;;;;;;;5.73;4.40;;;;;;;;;;6208386;23;20561;-88
2021/08/17 13:22:07;;;;;;;6.27;4.07;;;20.20;92.80;;;;;;6215135;23;20872;-87
2021/08/17 13:24:34;;;;;;;6.30;4.63;;;20.20;92.90;;;;;;6213666;23;20769;-88
2021/08/17 13:27:01;;;;;;;6.10;4.13;;;;;;;;;;6215555;23;20458;-88
2021/08/17 13:29:29;;;;;;;5.70;3.90;;;;;;;;;;6215425;23;20396;-88
2021/08/17 13:31:58;;;;;;;3.87;3.43;;;;;;;;;;6215477;23;20867;-87
2021/08/17 13:34:25;;;;;;;4.60;3.73;;;;;;;;;;6215513;23;20399;-87
2021/08/17 13:36:53;;;;;;;4.93;3.53;;;;;;;;;;6215435;23;20709;-88
2021/08/17 13:39:21;;;;;;;6.13;4.57;;;19.50;94.70;;;;;;6213709;23;20430;-88
2021/08/17 13:41:48;;;;;;;4.63;3.87;;;;;;;;;;6215040;23;20392;-88
2021/08/17 13:44:16;;;;;;;5.80;4.33;;;;;;;;;;6215309;23;20419;-87
2021/08/17 13:46:43;;;;;;;4.70;4.07;;;;;;;;;;6215420;23;20403;-88
2021/08/17 13:49:10;;;;;;;5.33;3.97;;;;;;;;;;6215383;23;20718;-89
2021/08/17 13:51:37;;;;;;;7.40;4.40;;;;;;;;;;6215330;23;20392;-87
2021/08/17 13:54:04;;;;;;;5.73;3.90;;;;;;;;;;6213602;23;20736;-87
2021/08/17 13:56:32;;;;;;;5.40;3.83;;;18.90;97.00;;;;;;6215216;23;20601;-86
2021/08/17 13:59:00;;;;;;;6.50;4.10;;;;;;;;;;6215139;23;20438;-87
2021/08/17 14:01:27;;;;;;;5.07;3.83;;;;;;;;;;6210360;23;20926;-87
2021/08/17 14:03:55;;;;;;;6.53;4.93;;;;;;;;;;6215292;23;20395;-88